Time;durP1;ratioP1;P1;durP2;ratioP2;P2;SDS_P1;SDS_P2;PMS_P1;PMS_P2;Temp;Humidity;BMP_temperature;BMP_pressure;BME280_temperature;BME280_humidity;BME280_pressure;Samples;Min_cycle;Max_cycle;Signal;HPM_P1;HPM_P2
2022/10/01 00:02:14;;;;;;;7.97;7.47;;;;;;;-141.48;100.00;69781.59;5164886;28;20499;-67
2022/10/01 00:04:45;;;;;;;8.05;7.50;;;;;;;-141.48;100.00;69781.59;5164633;28;20437;-66
2022/10/01 00:07:17;;;;;;;7.97;7.20;;;;;;;-141.48;100.00;69781.59;5164703;28;20537;-64
2022/10/01 00:09:47;;;;;;;8.75;8.20;;;;;;;-141.48;100.00;69781.59;5164718;28;20105;-66
2022/10/01 00:12:18;;;;;;;9.52;8.93;;;;;;;-141.48;100.00;69781.59;5165681;28;20555;-67
2022/10/01 00:14:48;;;;;;;7.72;7.18;;;;;;;-141.48;100.00;69781.59;5164548;28;20053;-67
2022/10/01 00:17:19;;;;;;;7.93;7.43;;;;;;;-141.48;100.00;69781.59;5164487;28;20375;-66
2022/10/01 00:19:49;;;;;;;7.85;7.25;;;;;;;-141.48;100.00;69781.59;5164458;28;20103;-66
2022/10/01 00:22:20;;;;;;;7.03;6.63;;;;;;;-141.48;100.00;69781.59;5221281;23;20068;-79
2022/10/01 00:24:50;;;;;;;10.98;7.80;;;;;;;-141.48;100.00;69781.59;5224806;28;20274;-79
2022/10/01 00:27:21;;;;;;;8.43;7.93;;;;;;;-141.48;100.00;69781.59;5207583;28;20025;-78
2022/10/01 00:29:52;;;;;;;11.85;7.80;;;;;;;-141.48;100.00;69781.59;5226029;28;20475;-79
2022/10/01 00:32:23;;;;;;;7.55;6.95;;;;;;;-141.48;100.00;69781.59;5207530;28;20487;-80
2022/10/01 00:34:53;;;;;;;7.85;7.13;;;;;;;-141.48;100.00;69781.59;5225919;28;20079;-79
2022/10/01 00:37:24;;;;;;;6.82;6.38;;;;;;;-141.48;100.00;69781.59;5225913;28;20032;-79
2022/10/01 00:39:54;;;;;;;7.45;6.97;;;;;;;-141.48;100.00;69781.59;5226295;28;20480;-80
2022/10/01 00:42:25;;;;;;;10.90;7.30;;;;;;;-141.48;100.00;69781.59;5226123;28;20027;-80
2022/10/01 00:44:57;;;;;;;7.80;7.30;;;;;;;-141.48;100.00;69781.59;5225444;28;20029;-81
2022/10/01 00:47:46;;;;;;;7.95;7.35;;;;;;;-141.48;100.00;69781.59;5208137;28;20425;-81
2022/10/01 00:50:31;;;;;;;7.03;6.63;;;;;;;-141.48;100.00;69781.59;5225536;28;20031;-79
2022/10/01 00:53:05;;;;;;;7.28;6.72;;;;;;;-141.48;100.00;69781.59;5208129;28;20028;-79
2022/10/01 00:55:42;;;;;;;7.55;7.05;;;;;;;-141.48;100.00;69781.59;5207795;28;20079;-81
2022/10/01 00:58:14;;;;;;;8.65;6.20;;;;;;;-141.48;100.00;69781.59;5227408;28;20380;-81
2022/10/01 01:00:45;;;;;;;7.35;6.65;;;;;;;-141.48;100.00;69781.59;5227697;28;20033;-83
2022/10/01 01:03:16;;;;;;;7.57;7.18;;;;;;;-141.48;100.00;69781.59;5226958;28;20071;-81
2022/10/01 01:05:46;;;;;;;6.93;6.45;;;;;;;-141.48;100.00;69781.59;5225988;28;20028;-82
2022/10/01 01:08:17;;;;;;;6.28;4.82;;;;;;;-141.48;100.00;69781.59;5226895;28;20426;-82
2022/10/01 01:11:23;;;;;;;5.80;5.40;;;;;;;-141.48;100.00;69781.59;5226170;28;20104;-82
2022/10/01 01:13:56;;;;;;;6.63;6.13;;;;;;;-141.48;100.00;69781.59;5228134;28;20021;-82
2022/10/01 01:16:34;;;;;;;7.18;5.50;;;;;;;-141.48;100.00;69781.59;5227895;28;20032;-80
2022/10/01 01:19:36;;;;;;;7.72;5.80;;;;;;;-141.48;100.00;69781.59;5228256;28;20104;-80
2022/10/01 01:22:10;;;;;;;5.97;5.60;;;;;;;-141.48;100.00;69781.59;5227988;28;20040;-80
2022/10/01 01:25:21;;;;;;;4.47;4.28;;;;;;;-141.48;100.00;69781.59;5209726;28;20498;-81
2022/10/01 01:28:15;;;;;;;6.80;5.75;;;;;;;-141.48;100.00;69781.59;5143126;28;20037;-82
2022/10/01 01:30:49;;;;;;;5.32;4.97;;;;;;;-141.48;100.00;69781.59;5143322;28;20061;-82
2022/10/01 01:33:22;;;;;;;3.67;3.38;;;;;;;-141.48;100.00;69781.59;5204012;28;20041;-81
2022/10/01 01:36:04;;;;;;;5.05;4.75;;;;;;;-141.48;100.00;69781.59;5227458;28;20025;-81
2022/10/01 01:38:41;;;;;;;4.50;4.20;;;;;;;-141.48;100.00;69781.59;5210021;28;20025;-80
2022/10/01 01:41:14;;;;;;;3.83;3.63;;;;;;;-141.48;100.00;69781.59;5228076;28;20116;-82
2022/10/01 01:43:50;;;;;;;4.70;4.50;;;;;;;-141.48;100.00;69781.59;5227041;28;20028;-81
2022/10/01 01:46:21;;;;;;;4.88;4.50;;;;;;;-141.48;100.00;69781.59;5228576;28;20021;-80
2022/10/01 01:48:52;;;;;;;4.65;4.45;;;;;;;-141.48;100.00;69781.59;5228126;28;20089;-81
2022/10/01 01:51:34;;;;;;;6.55;4.60;;;;;;;-141.48;100.00;69781.59;5210518;28;20554;-82
2022/10/01 01:54:05;;;;;;;3.05;2.95;;;;;;;-141.48;100.00;69781.59;5227438;28;20033;-82
2022/10/01 01:56:36;;;;;;;4.10;3.83;;;;;;;-141.48;100.00;69781.59;5228856;28;20028;-83
2022/10/01 01:59:07;;;;;;;4.32;3.95;;;;;;;-141.48;100.00;69781.59;5227352;28;20033;-81
2022/10/01 02:01:40;;;;;;;3.88;3.67;;;;;;;-141.48;100.00;69781.59;5227628;28;20017;-80
2022/10/01 02:04:18;;;;;;;4.45;4.25;;;;;;;-141.48;100.00;69781.59;5227445;28;20471;-80
2022/10/01 02:07:06;;;;;;;3.85;3.65;;;;;;;-141.48;100.00;69781.59;5209966;28;20025;-79
2022/10/01 02:10:21;;;;;;;2.90;2.70;;;;;;;-141.48;100.00;69781.59;5227830;28;20050;-82
2022/10/01 02:13:29;;;;;;;6.13;3.25;;;;;;;-141.48;100.00;69781.59;5216833;28;20102;-79
2022/10/01 02:16:29;;;;;;;4.38;3.22;;;;;;;-141.48;100.00;69781.59;5229847;28;20029;-81
2022/10/01 02:19:08;;;;;;;;;;;;;;;-141.48;100.00;69781.59;5229031;28;20087;-81
2022/10/01 02:21:43;;;;;;;3.65;3.45;;;;;;;-141.48;100.00;69781.59;5228108;28;19913;-80
2022/10/01 02:24:35;;;;;;;3.78;3.47;;;;;;;-141.48;100.00;69781.59;5210421;28;20032;-81
2022/10/01 02:27:12;;;;;;;2.85;2.75;;;;;;;-141.48;100.00;69781.59;5228104;28;20051;-79
2022/10/01 02:29:44;;;;;;;3.38;3.28;;;;;;;-141.48;100.00;69781.59;5226971;28;20107;-80
2022/10/01 02:32:17;;;;;;;2.63;2.53;;;;;;;-141.48;100.00;69781.59;5225816;28;20154;-81
2022/10/01 02:34:49;;;;;;;3.78;2.58;;;;;;;-141.48;100.00;69781.59;5206589;28;20343;-80
2022/10/01 02:37:23;;;;;;;2.50;2.40;;;;;;;-141.48;100.00;69781.59;5225168;28;20063;-80
2022/10/01 02:39:56;;;;;;;3.00;2.90;;;;;;;-141.48;100.00;69781.59;5225095;28;20056;-80
2022/10/01 02:42:28;;;;;;;2.90;2.47;;;;;;;-141.48;100.00;69781.59;5225184;28;20017;-81
2022/10/01 02:45:01;;;;;;;2.15;2.05;;;;;;;-141.48;100.00;69781.59;5223873;28;20021;-80
2022/10/01 02:47:43;;;;;;;2.80;2.58;;;;;;;-141.48;100.00;69781.59;5224713;28;20518;-80
2022/10/01 02:50:14;;;;;;;2.58;2.47;;;;;;;-141.48;100.00;69781.59;5225446;28;20028;-80
2022/10/01 02:52:51;;;;;;;1.90;1.80;;;;;;;-141.48;100.00;69781.59;5207173;28;20025;-80
2022/10/01 02:55:29;;;;;;;2.55;2.45;;;;;;;-141.48;100.00;69781.59;5225668;28;20032;-80
2022/10/01 02:58:00;;;;;;;2.58;2.47;;;;;;;-141.48;100.00;69781.59;5211016;28;20119;-82
2022/10/01 03:00:30;;;;;;;2.28;2.17;;;;;;;-141.48;100.00;69781.59;5228562;28;20077;-82
2022/10/01 03:03:01;;;;;;;2.10;2.00;;;;;;;-141.48;100.00;69781.59;5228876;28;20189;-82
2022/10/01 03:05:31;;;;;;;1.52;1.52;;;;;;;-141.48;100.00;69781.59;5227927;28;20036;-82
2022/10/01 03:08:02;;;;;;;1.60;1.60;;;;;;;-141.48;100.00;69781.59;5228880;28;20481;-82
2022/10/01 03:10:33;;;;;;;1.60;1.50;;;;;;;-141.48;100.00;69781.59;5228446;28;20060;-84
2022/10/01 03:13:05;;;;;;;2.00;1.90;;;;;;;-141.48;100.00;69781.59;5228580;28;20021;-82
2022/10/01 03:15:36;;;;;;;1.45;1.42;;;;;;;-141.48;100.00;69781.59;5209568;28;20032;-82
2022/10/01 03:18:06;;;;;;;2.05;1.95;;;;;;;-141.48;100.00;69781.59;5229457;28;20398;-82
2022/10/01 03:20:36;;;;;;;1.60;1.60;;;;;;;-141.48;100.00;69781.59;5228560;28;20103;-83
2022/10/01 03:23:07;;;;;;;2.15;2.05;;;;;;;-141.48;100.00;69781.59;5228194;28;20040;-82
2022/10/01 03:25:38;;;;;;;5.80;1.85;;;;;;;-141.48;100.00;69781.59;5209165;28;20127;-81
2022/10/01 03:28:08;;;;;;;1.70;1.60;;;;;;;-141.48;100.00;69781.59;5228064;28;20028;-81
2022/10/01 03:30:38;;;;;;;1.17;1.17;;;;;;;-141.48;100.00;69781.59;5227841;28;20021;-81
2022/10/01 03:33:09;;;;;;;1.55;1.45;;;;;;;-141.48;100.00;69781.59;5227821;28;20033;-82
2022/10/01 03:35:39;;;;;;;1.50;1.50;;;;;;;-141.48;100.00;69781.59;5227039;28;20032;-81
2022/10/01 03:38:09;;;;;;;1.33;1.33;;;;;;;-141.48;100.00;69781.59;5228397;28;20147;-82
2022/10/01 03:40:40;;;;;;;1.67;1.67;;;;;;;-141.48;100.00;69781.59;5227844;28;20036;-83
2022/10/01 03:43:11;;;;;;;2.13;1.92;;;;;;;-141.48;100.00;69781.59;5210361;28;20017;-82
2022/10/01 03:45:41;;;;;;;1.55;1.55;;;;;;;-141.48;100.00;69781.59;5227565;28;20150;-80
2022/10/01 03:48:11;;;;;;;1.50;1.50;;;;;;;-141.48;100.00;69781.59;5228258;28;20112;-81
2022/10/01 03:50:42;;;;;;;1.60;1.60;;;;;;;-141.48;100.00;69781.59;5228218;28;20145;-80
2022/10/01 03:53:12;;;;;;;1.67;1.67;;;;;;;-141.48;100.00;69781.59;5227713;28;20036;-83
2022/10/01 03:55:42;;;;;;;2.22;2.13;;;;;;;-141.48;100.00;69781.59;5209388;28;20025;-83
2022/10/01 03:58:13;;;;;;;1.75;1.70;;;;;;;-141.48;100.00;69781.59;5227997;28;20089;-83
2022/10/01 04:00:45;;;;;;;2.85;2.20;;;;;;;-141.48;100.00;69781.59;5227795;28;20056;-81
2022/10/01 04:03:16;;;;;;;1.92;1.83;;;;;;;-141.48;100.00;69781.59;5209013;28;20041;-82
2022/10/01 04:05:47;;;;;;;1.60;1.60;;;;;;;-141.48;100.00;69781.59;5226955;28;20057;-80
2022/10/01 04:08:17;;;;;;;1.50;1.50;;;;;;;-141.48;100.00;69781.59;5228141;28;20060;-83
2022/10/01 04:10:48;;;;;;;2.13;2.10;;;;;;;-141.48;100.00;69781.59;5227586;28;20455;-83
2022/10/01 04:13:18;;;;;;;1.75;1.75;;;;;;;-141.48;100.00;69781.59;5226893;28;20075;-82
2022/10/01 04:15:49;;;;;;;4.70;2.63;;;;;;;-141.48;100.00;69781.59;5227096;28;20455;-82
2022/10/01 04:18:20;;;;;;;3.30;2.17;;;;;;;-141.48;100.00;69781.59;5209099;28;20033;-81
2022/10/01 04:20:51;;;;;;;3.35;2.10;;;;;;;-141.48;100.00;69781.59;5209064;28;20071;-82
2022/10/01 04:23:25;;;;;;;2.80;2.10;;;;;;;-141.48;100.00;69781.59;5226249;28;20053;-84
2022/10/01 04:26:01;;;;;;;2.38;2.28;;;;;;;-141.48;100.00;69781.59;5227066;28;20115;-81
2022/10/01 04:28:31;;;;;;;2.53;2.20;;;;;;;-141.48;100.00;69781.59;5227037;28;20078;-82
2022/10/01 04:33:53;;;;;;;2.75;2.65;;;;;;;-141.48;100.00;69781.59;5226106;28;20531;-82
2022/10/01 04:36:24;;;;;;;2.53;2.42;;;;;;;-141.48;100.00;69781.59;5227022;28;20098;-82
2022/10/01 04:38:56;;;;;;;1.75;1.73;;;;;;;-141.48;100.00;69781.59;5227320;28;20040;-82
2022/10/01 04:41:26;;;;;;;4.72;3.38;;;;;;;-141.48;100.00;69781.59;5210433;28;20033;-81
2022/10/01 04:43:58;;;;;;;2.47;2.38;;;;;;;-141.48;100.00;69781.59;5227971;28;20070;-81
2022/10/01 04:46:29;;;;;;;3.00;2.80;;;;;;;-141.48;100.00;69781.59;5226433;28;20025;-81
2022/10/01 04:48:59;;;;;;;6.03;3.65;;;;;;;-141.48;100.00;69781.59;5226684;28;20024;-81
2022/10/01 04:51:30;;;;;;;2.53;2.42;;;;;;;-141.48;100.00;69781.59;5226560;28;20499;-81
2022/10/01 04:54:00;;;;;;;2.75;2.65;;;;;;;-141.48;100.00;69781.59;5225265;28;20033;-81
2022/10/01 04:56:31;;;;;;;3.92;3.58;;;;;;;-141.48;100.00;69781.59;5226228;28;20033;-81
2022/10/01 04:59:01;;;;;;;3.05;2.88;;;;;;;-141.48;100.00;69781.59;5226634;28;20032;-81
2022/10/01 05:01:31;;;;;;;2.67;2.58;;;;;;;-141.48;100.00;69781.59;5227213;28;20044;-81
2022/10/01 05:04:02;;;;;;;2.42;2.33;;;;;;;-141.48;100.00;69781.59;5207848;28;20093;-82
2022/10/01 05:06:32;;;;;;;3.40;2.33;;;;;;;-141.48;100.00;69781.59;5226688;28;20017;-82
2022/10/01 05:09:03;;;;;;;1.90;1.90;;;;;;;-141.48;100.00;69781.59;5226453;28;20044;-82
2022/10/01 05:11:33;;;;;;;2.67;2.55;;;;;;;-141.48;100.00;69781.59;5226145;28;20036;-82
2022/10/01 05:14:03;;;;;;;2.95;2.75;;;;;;;-141.48;100.00;69781.59;5207184;28;20060;-81
2022/10/01 05:16:34;;;;;;;2.92;2.72;;;;;;;-141.48;100.00;69781.59;5226596;28;20040;-82
2022/10/01 05:19:05;;;;;;;2.30;2.20;;;;;;;-141.48;100.00;69781.59;5227090;28;20048;-81
2022/10/01 05:21:36;;;;;;;3.05;2.92;;;;;;;-141.48;100.00;69781.59;5226632;28;20398;-82
2022/10/01 05:24:06;;;;;;;1.90;1.80;;;;;;;-141.48;100.00;69781.59;5225398;28;20031;-82
2022/10/01 05:26:37;;;;;;;4.18;3.97;;;;;;;-141.48;100.00;69781.59;5208930;28;20052;-82
2022/10/01 05:29:08;;;;;;;3.05;2.80;;;;;;;-141.48;100.00;69781.59;5227399;28;20100;-81
2022/10/01 05:31:42;;;;;;;2.45;2.33;;;;;;;-141.48;100.00;69781.59;5226394;28;20098;-81
2022/10/01 05:34:16;;;;;;;2.55;2.45;;;;;;;-141.48;100.00;69781.59;5225611;28;20503;-82
2022/10/01 05:36:46;;;;;;;2.85;2.65;;;;;;;-141.48;100.00;69781.59;5225511;28;20475;-83
2022/10/01 05:39:16;;;;;;;3.17;3.08;;;;;;;-141.48;100.00;69781.59;5208434;28;20033;-82
2022/10/01 05:41:47;;;;;;;2.85;2.75;;;;;;;-141.48;100.00;69781.59;5226316;28;20459;-82
2022/10/01 05:44:17;;;;;;;3.80;3.58;;;;;;;-141.48;100.00;69781.59;5224696;28;20092;-82
2022/10/01 05:46:47;;;;;;;2.88;2.67;;;;;;;-141.48;100.00;69781.59;5225772;28;20020;-81
2022/10/01 05:49:18;;;;;;;3.38;3.05;;;;;;;-141.48;100.00;69781.59;5227489;28;20032;-80
2022/10/01 05:51:48;;;;;;;4.15;3.83;;;;;;;-141.48;100.00;69781.59;5208149;28;20057;-80
2022/10/01 05:54:22;;;;;;;2.75;2.55;;;;;;;-141.48;100.00;69781.59;5225362;28;20024;-80
2022/10/01 05:56:52;;;;;;;2.67;2.47;;;;;;;-141.48;100.00;69781.59;5209078;28;20047;-80
2022/10/01 05:59:23;;;;;;;3.45;3.15;;;;;;;-141.48;100.00;69781.59;5228101;28;20013;-79
2022/10/01 06:01:54;;;;;;;5.28;3.58;;;;;;;-141.48;100.00;69781.59;5227632;28;20016;-82
2022/10/01 06:04:24;;;;;;;3.90;3.70;;;;;;;-141.48;100.00;69781.59;5227202;28;20028;-80
2022/10/01 06:06:55;;;;;;;3.78;3.47;;;;;;;-141.48;100.00;69781.59;5228675;28;20032;-83
2022/10/01 06:09:25;;;;;;;3.50;3.40;;;;;;;-141.48;100.00;69781.59;5208968;28;20115;-83
2022/10/01 06:11:55;;;;;;;4.80;3.45;;;;;;;-141.48;100.00;69781.59;5227407;28;20538;-79
2022/10/01 06:14:26;;;;;;;4.10;3.90;;;;;;;-141.48;100.00;69781.59;5208603;28;20493;-79
2022/10/01 06:16:56;;;;;;;4.00;3.63;;;;;;;-141.48;100.00;69781.59;5225870;28;20421;-83
2022/10/01 06:19:27;;;;;;;3.22;3.05;;;;;;;-141.48;100.00;69781.59;5226592;28;20033;-82
2022/10/01 06:21:57;;;;;;;4.50;3.83;;;;;;;-141.48;100.00;69781.59;5188033;22;1268166;-68
2022/10/01 06:24:29;;;;;;;5.15;4.85;;;;;;;-141.48;100.00;69781.59;5178059;28;20048;-69
2022/10/01 06:26:59;;;;;;;5.35;5.03;;;;;;;-141.48;100.00;69781.59;5186899;28;20168;-68
2022/10/01 06:29:29;;;;;;;5.10;4.80;;;;;;;-141.48;100.00;69781.59;5188362;28;20510;-69
2022/10/01 06:32:00;;;;;;;3.63;3.33;;;;;;;-141.48;100.00;69781.59;5190843;28;20481;-69
2022/10/01 06:34:31;;;;;;;4.25;3.92;;;;;;;-141.48;100.00;69781.59;5190568;28;20026;-70
2022/10/01 06:37:01;;;;;;;5.55;4.97;;;;;;;-141.48;100.00;69781.59;5190773;28;20033;-67
2022/10/01 06:39:31;;;;;;;3.83;3.55;;;;;;;-141.48;100.00;69781.59;5190490;28;20028;-67
2022/10/01 06:42:02;;;;;;;4.63;4.32;;;;;;;-141.48;100.00;69781.59;5190613;28;20033;-67
2022/10/01 06:44:32;;;;;;;3.67;3.45;;;;;;;-141.48;100.00;69781.59;5208094;28;20025;-67
2022/10/01 06:47:03;;;;;;;4.75;4.40;;;;;;;-141.48;100.00;69781.59;5190839;28;20029;-68
2022/10/01 06:49:33;;;;;;;4.65;3.97;;;;;;;-141.48;100.00;69781.59;5190441;28;20033;-68
2022/10/01 06:54:53;;;;;;;5.28;4.78;;;;;;;-141.48;100.00;69781.59;5228887;28;20044;-71
2022/10/01 06:57:23;;;;;;;7.53;4.32;;;;;;;-141.48;100.00;69781.59;5210776;28;20386;-69
2022/10/01 06:59:54;;;;;;;4.47;4.00;;;;;;;-141.48;100.00;69781.59;5203787;28;20025;-69
2022/10/01 07:02:30;;;;;;;4.68;4.47;;;;;;;-141.48;100.00;69781.59;5191025;28;20029;-72
2022/10/01 07:05:01;;;;;;;4.32;4.03;;;;;;;-141.48;100.00;69781.59;5189269;28;20028;-68
2022/10/01 07:07:36;;;;;;;6.60;4.70;;;;;;;-141.48;100.00;69781.59;5190041;28;20033;-68
2022/10/01 07:10:08;;;;;;;5.07;4.70;;;;;;;-141.48;100.00;69781.59;5207454;28;20053;-69
2022/10/01 07:12:38;;;;;;;5.07;4.78;;;;;;;-141.48;100.00;69781.59;5190537;28;20097;-69
2022/10/01 07:15:09;;;;;;;4.43;4.13;;;;;;;-141.48;100.00;69781.59;5201297;28;20174;-71
2022/10/01 07:17:44;;;;;;;5.47;5.18;;;;;;;-141.48;100.00;69781.59;5211598;28;20049;-66
2022/10/01 07:20:18;;;;;;;5.65;4.60;;;;;;;-141.48;100.00;69781.59;5211281;28;20500;-67
2022/10/01 07:22:54;;;;;;;5.60;5.13;;;;;;;-141.48;100.00;69781.59;5211358;28;20029;-67
2022/10/01 07:25:26;;;;;;;8.13;5.10;;;;;;;-141.48;100.00;69781.59;5210646;28;20396;-68
2022/10/01 07:27:59;;;;;;;5.80;5.15;;;;;;;-141.48;100.00;69781.59;5210590;28;20021;-68
2022/10/01 07:30:31;;;;;;;9.57;4.95;;;;;;;-141.48;100.00;69781.59;5228210;28;20024;-70
2022/10/01 07:33:02;;;;;;;5.88;5.45;;;;;;;-141.48;100.00;69781.59;5209979;28;20094;-68
2022/10/01 07:35:32;;;;;;;6.68;5.22;;;;;;;-141.48;100.00;69781.59;5210165;28;20484;-69
2022/10/01 07:38:06;;;;;;;6.13;5.60;;;;;;;-141.48;100.00;69781.59;5210071;28;20512;-69
2022/10/01 07:40:37;;;;;;;5.57;5.13;;;;;;;-141.48;100.00;69781.59;5208938;28;20027;-67
2022/10/01 07:43:08;;;;;;;7.22;6.65;;;;;;;-141.48;100.00;69781.59;5210364;28;20107;-70
2022/10/01 07:45:38;;;;;;;6.57;5.95;;;;;;;-141.48;100.00;69781.59;5209672;28;20374;-71
2022/10/01 07:48:09;;;;;;;7.35;5.05;;;;;;;-141.48;100.00;69781.59;5210176;28;20060;-71
2022/10/01 07:50:42;;;;;;;6.35;5.95;;;;;;;-141.48;100.00;69781.59;5209927;28;20063;-71
2022/10/01 07:53:13;;;;;;;9.30;7.45;;;;;;;-141.48;100.00;69781.59;5209731;28;20512;-69
2022/10/01 07:55:46;;;;;;;7.93;6.10;;;;;;;-141.48;100.00;69781.59;5207041;28;20029;-71
2022/10/01 07:58:17;;;;;;;6.13;5.63;;;;;;;-141.48;100.00;69781.59;5209308;28;20021;-71
2022/10/01 08:00:48;;;;;;;7.25;6.32;;;;;;;-141.48;100.00;69781.59;5209978;28;20405;-74
2022/10/01 08:03:18;;;;;;;9.88;5.53;;;;;;;-141.48;100.00;69781.59;5227443;28;20032;-69
2022/10/01 08:05:49;;;;;;;10.07;6.65;;;;;;;-141.48;100.00;69781.59;5209397;28;20032;-71
2022/10/01 08:08:19;;;;;;;10.48;6.90;;;;;;;-141.48;100.00;69781.59;5227425;28;20043;-71
2022/10/01 08:10:50;;;;;;;8.18;7.03;;;;;;;-141.48;100.00;69781.59;5209389;28;20021;-72
2022/10/01 08:13:23;;;;;;;9.68;5.70;;;;;;;-141.48;100.00;69781.59;5227220;28;20080;-71
2022/10/01 08:15:54;;;;;;;6.10;5.75;;;;;;;-141.48;100.00;69781.59;5209664;28;20025;-70
2022/10/01 08:18:24;;;;;;;10.27;6.15;;;;;;;-141.48;100.00;69781.59;5209259;28;20346;-71
2022/10/01 08:20:54;;;;;;;11.50;5.85;;;;;;;-141.48;100.00;69781.59;5209293;28;20087;-71
2022/10/01 08:23:25;;;;;;;10.80;6.20;;;;;;;-141.48;100.00;69781.59;5209437;28;20013;-70
2022/10/01 08:26:05;;;;;;;5.88;5.40;;;;;;;-141.48;100.00;69781.59;5209310;28;20112;-67
2022/10/01 08:28:36;;;;;;;9.98;6.10;;;;;;;-141.48;100.00;69781.59;5209039;28;20072;-69
2022/10/01 08:31:08;;;;;;;15.52;5.97;;;;;;;-141.48;100.00;69781.59;5209288;28;20057;-69
2022/10/01 08:33:39;;;;;;;12.93;6.82;;;;;;;-141.48;100.00;69781.59;5208736;28;20021;-69
2022/10/01 08:36:09;;;;;;;6.15;5.63;;;;;;;-141.48;100.00;69781.59;5209055;28;20653;-71
2022/10/01 08:38:44;;;;;;;13.48;5.72;;;;;;;-141.48;100.00;69781.59;5208809;28;20109;-69
2022/10/01 08:41:22;;;;;;;7.47;5.93;;;;;;;-141.48;100.00;69781.59;5209271;28;20033;-66
2022/10/01 08:43:53;;;;;;;6.55;4.72;;;;;;;-141.48;100.00;69781.59;5206027;28;20044;-67
2022/10/01 08:46:28;;;;;;;5.03;4.63;;;;;;;-141.48;100.00;69781.59;5207102;28;20523;-69
2022/10/01 08:49:04;;;;;;;6.03;4.38;;;;;;;-141.48;100.00;69781.59;5207331;28;20457;-70
2022/10/01 08:51:44;;;;;;;6.53;4.28;;;;;;;-141.48;100.00;69781.59;5208702;28;20466;-67
2022/10/01 08:54:27;;;;;;;14.40;5.63;;;;;;;-141.48;100.00;69781.59;5207351;28;20021;-68
2022/10/01 08:57:05;;;;;;;12.57;5.55;;;;;;;-141.48;100.00;69781.59;5224722;28;20139;-68
2022/10/01 08:59:46;;;;;;;10.43;4.90;;;;;;;-141.48;100.00;69781.59;5226763;28;20401;-67
2022/10/01 09:02:23;;;;;;;6.82;5.13;;;;;;;-141.48;100.00;69781.59;5208493;28;20017;-69
2022/10/01 09:05:09;;;;;;;16.40;7.00;;;;;;;-141.48;100.00;69781.59;5208029;28;20031;-67
2022/10/01 09:08:17;;;;;;;6.57;4.70;;;;;;;-141.48;100.00;69781.59;5208379;28;20163;-67
2022/10/01 09:11:04;;;;;;;4.65;4.38;;;;;;;-141.48;100.00;69781.59;5208126;28;20048;-67
2022/10/01 09:13:57;;;;;;;9.18;4.28;;;;;;;-141.48;100.00;69781.59;5207703;28;20032;-68
2022/10/01 09:17:09;;;;;;;6.18;4.28;;;;;;;-141.48;100.00;69781.59;5207427;28;20079;-67
2022/10/01 09:19:58;;;;;;;13.13;3.78;;;;;;;-141.48;100.00;69781.59;5178312;28;20044;-68
2022/10/01 09:22:48;;;;;;;4.63;4.28;;;;;;;-141.48;100.00;69781.59;5207327;28;20363;-68
2022/10/01 09:25:22;;;;;;;11.75;5.30;;;;;;;-141.48;100.00;69781.59;5206994;28;20036;-67
2022/10/01 09:28:06;;;;;;;6.20;3.75;;;;;;;-141.48;100.00;69781.59;5206749;28;20013;-68
2022/10/01 09:30:46;;;;;;;6.82;4.75;;;;;;;-141.48;100.00;69781.59;5207163;28;20389;-68
2022/10/01 09:33:21;;;;;;;6.72;4.05;;;;;;;-141.48;100.00;69781.59;5224945;28;20070;-67
2022/10/01 09:36:01;;;;;;;7.88;7.15;;;;;;;-141.48;100.00;69781.59;5206977;28;20024;-67
2022/10/01 09:38:47;;;;;;;8.13;4.70;;;;;;;-141.48;100.00;69781.59;5206899;28;20020;-67
2022/10/01 09:41:18;;;;;;;5.18;4.88;;;;;;;-141.48;100.00;69781.59;5207048;28;20570;-68
2022/10/01 09:43:48;;;;;;;7.03;4.57;;;;;;;-141.48;100.00;69781.59;5206908;28;20013;-67
2022/10/01 09:46:18;;;;;;;7.72;4.75;;;;;;;-141.48;100.00;69781.59;5206893;28;20028;-67
2022/10/01 09:49:01;;;;;;;5.55;3.90;;;;;;;-141.48;100.00;69781.59;5206624;28;20591;-67
2022/10/01 09:51:37;;;;;;;4.47;4.18;;;;;;;-141.48;100.00;69781.59;5207029;28;20021;-67
2022/10/01 09:54:20;;;;;;;5.50;4.10;;;;;;;-141.48;100.00;69781.59;5206687;28;20489;-66
2022/10/01 09:57:05;;;;;;;4.82;4.45;;;;;;;-141.48;100.00;69781.59;5206871;28;20029;-67
2022/10/01 10:00:09;;;;;;;7.80;3.85;;;;;;;-141.48;100.00;69781.59;5203625;28;20028;-67
2022/10/01 10:02:40;;;;;;;12.60;4.15;;;;;;;-141.48;100.00;69781.59;5203715;28;20025;-67
2022/10/01 10:05:23;;;;;;;4.82;4.53;;;;;;;-141.48;100.00;69781.59;5207430;28;20029;-67
2022/10/01 10:07:58;;;;;;;9.35;4.45;;;;;;;-141.48;100.00;69781.59;5211174;28;20025;-67
2022/10/01 10:10:34;;;;;;;9.60;4.57;;;;;;;-141.48;100.00;69781.59;5210990;28;20027;-67
2022/10/01 10:13:17;;;;;;;6.10;4.78;;;;;;;-141.48;100.00;69781.59;5210281;28;20116;-66
2022/10/01 10:15:53;;;;;;;8.80;5.13;;;;;;;-141.48;100.00;69781.59;5210777;28;20029;-67
2022/10/01 10:18:32;;;;;;;7.85;4.95;;;;;;;-141.48;100.00;69781.59;5210996;28;20633;-67
2022/10/01 10:21:09;;;;;;;6.75;5.07;;;;;;;-141.48;100.00;69781.59;5210034;28;20024;-66
2022/10/01 10:23:47;;;;;;;4.38;3.95;;;;;;;-141.48;100.00;69781.59;5210719;28;20612;-67
2022/10/01 10:26:27;;;;;;;8.40;4.05;;;;;;;-141.48;100.00;69781.59;5210545;28;20051;-67
2022/10/01 10:29:00;;;;;;;9.48;4.90;;;;;;;-141.48;100.00;69781.59;5210526;28;20032;-67
2022/10/01 10:31:44;;;;;;;4.32;3.00;;;;;;;-141.48;100.00;69781.59;5210796;28;20029;-67
2022/10/01 10:34:15;;;;;;;13.88;4.40;;;;;;;-141.48;100.00;69781.59;5210165;28;20021;-69
2022/10/01 10:36:46;;;;;;;4.55;3.38;;;;;;;-141.48;100.00;69781.59;5210462;28;20047;-66
2022/10/01 10:39:23;;;;;;;5.10;4.20;;;;;;;-141.48;100.00;69781.59;5210420;28;20561;-67
2022/10/01 10:41:55;;;;;;;3.90;3.38;;;;;;;-141.48;100.00;69781.59;5209973;28;20654;-66
2022/10/01 10:44:33;;;;;;;7.03;2.78;;;;;;;-141.48;100.00;69781.59;5209971;28;20109;-67
2022/10/01 10:47:10;;;;;;;3.80;3.30;;;;;;;-141.48;100.00;69781.59;5210298;28;20059;-67
2022/10/01 10:49:52;;;;;;;6.13;3.20;;;;;;;-141.48;100.00;69781.59;5210424;28;20036;-67
2022/10/01 10:52:28;;;;;;;7.40;5.30;;;;;;;-141.48;100.00;69781.59;5210376;28;20114;-67
2022/10/01 10:55:17;;;;;;;7.22;4.30;;;;;;;-141.48;100.00;69781.59;5210208;28;20044;-67
2022/10/01 10:57:48;;;;;;;5.20;3.35;;;;;;;-141.48;100.00;69781.59;5228152;28;20021;-67
2022/10/01 11:00:23;;;;;;;11.00;3.55;;;;;;;-141.48;100.00;69781.59;5210192;28;20036;-67
2022/10/01 11:02:55;;;;;;;7.00;3.80;;;;;;;-141.48;100.00;69781.59;5210080;28;20017;-67
2022/10/01 11:05:30;;;;;;;4.15;3.72;;;;;;;-141.48;100.00;69781.59;5209797;28;20060;-68
2022/10/01 11:08:07;;;;;;;8.05;3.72;;;;;;;-141.48;100.00;69781.59;5209993;28;20028;-67
2022/10/01 11:11:11;;;;;;;3.15;2.92;;;;;;;-141.48;100.00;69781.59;5208826;28;20545;-67
2022/10/01 11:14:06;;;;;;;3.85;3.22;;;;;;;-141.48;100.00;69781.59;5209720;28;20508;-67
2022/10/01 11:17:04;;;;;;;8.57;3.70;;;;;;;-141.48;100.00;69781.59;5172418;28;20021;-68
2022/10/01 11:20:10;;;;;;;10.57;3.53;;;;;;;-141.48;100.00;69781.59;5168138;28;20049;-67
2022/10/01 11:23:33;;;;;;;5.25;3.60;;;;;;;-141.48;100.00;69781.59;5161566;28;20504;-68
2022/10/01 11:26:12;;;;;;;5.22;2.42;;;;;;;-141.48;100.00;69781.59;5157103;28;20037;-68
2022/10/01 11:28:43;;;;;;;6.03;3.95;;;;;;;-141.48;100.00;69781.59;5189083;28;20029;-67
2022/10/01 11:31:23;;;;;;;3.85;3.30;;;;;;;-141.48;100.00;69781.59;5189215;28;20064;-67
2022/10/01 11:34:07;;;;;;;6.32;4.00;;;;;;;-141.48;100.00;69781.59;5188876;28;20030;-69
2022/10/01 11:36:51;;;;;;;4.97;2.15;;;;;;;-141.48;100.00;69781.59;5189147;28;20112;-68
2022/10/01 11:39:25;;;;;;;8.43;2.45;;;;;;;-141.48;100.00;69781.59;5188996;28;20095;-67
2022/10/01 11:42:21;;;;;;;8.55;2.88;;;;;;;-141.48;100.00;69781.59;5188891;28;20029;-67
2022/10/01 11:45:01;;;;;;;6.72;3.55;;;;;;;-141.48;100.00;69781.59;5188170;28;20562;-67
2022/10/01 11:47:39;;;;;;;2.63;2.42;;;;;;;-141.48;100.00;69781.59;5188783;28;20057;-67
2022/10/01 11:50:21;;;;;;;4.88;2.55;;;;;;;-141.48;100.00;69781.59;5188790;28;20033;-67
2022/10/01 11:52:59;;;;;;;9.68;3.58;;;;;;;-141.48;100.00;69781.59;5188778;28;20394;-67